Oscoda, Michigan
Current Conditions -  °F | °C
As of 6:53 PM on Thursday 18 Dec 2014 (Local Time) from KOSC Reporting Station
Overcast Overcast  
Wind Chill: 16°   Ceiling: 1800
Heat Index: 25°   Visibility: 10mi
Dew Point: 20°   Wind: 8mph
Humidity: 84%   Direction: 320°NW
Pressure: 30.2"   Gusts: NA
Location:  44.42°N, 83.33°W
Report Text: KOSC 182353Z AUTO 32007KT 10SM OVC018 M04/M06 A3020 RMK AO2 T10411065
Loading
Personal Weather Stations






























Interactive Weather Map New forecast layout! Learn more

10-Day Weather Forecast

Advertisements
Track Severe Weather on mobile